Startpagina
METAR-TAF:

METAR-TAF

Vliegvelden :

Tripoli, Libië

Luchthaven Mitiga Internationaal

breedte: 32-54N, lengte: 13-17E, hoogte: 11 m

Actueel weer

Dit bericht is 21 minuten geleden gemaakt, om 19:55 UTC
Wind 2 kt uit het oosten
Temperatuur 15°C
Vochtigheid 67%
Druk 1008 hPa
Zicht: 7000 m

METAR: HLLM 241955Z 10002KT 7000 NSC 15/09 Q1008

Tijdstip: 22:16 (20:16 UTC)

Verwachting

Dit bericht is 9 uur en het 16 minuten geleden gemaakt, om 11:00 UTC
Verwachting geldig van 24 om 12 UTC tot 25 om 12 UTC
Wind 10 kt uit het zuidzuidoosten
Zicht 10 km of meer
geen wolken onder 1500 m en geen cumulonimbus
Wijzigt naar
van 24 om 16 UTC tot 24 om 18 UTC
Wind 2 kt uit variabele richting
Wijzigt naar
van 24 om 21 UTC tot 24 om 23 UTC
Wind 10 kt uit het zuiden
Zicht: 8000 m
Weinig wolken op 2500 ft
Verspreide wolken op 8000 ft
Wijzigt naar
van 25 om 04 UTC tot 25 om 06 UTC
Wind 15 kt uit het westen

TAF: HLLM 241100Z 2412/2512 16010KT CAVOK BECMG 2416/2418 VRB02KT BECMG 2421/2423 18010KT 8000 FEW025 SCT080 BECMG 2504/2506 26015KT

Waarnemingen en weersverwachtingen van meer dan 4000 vliegvelden (METAR en TAF).

De beschikbare stations zijn de gele en rode punten op de kaart.

Ga met uw muis naar het station om de naam te zien.

Klik dan om waarnemingen en weersverwachtingen te zien.

kaart wijzigen: klik op de groene knoppen met een zwart kruis om in te zoomen, op de groene knop met een streepje om uit te zoomen of op de groene pijlen voor aangrenzende kaarten.


METAR-TAF: